sensor_id;sensor_type;location;lat;lon;timestamp;temperature;humidity
48860;DHT22;34679;51.436;-2.518;2022-07-10T00:01:51;17.70;96.30
48860;DHT22;34679;51.436;-2.518;2022-07-10T00:04:17;17.60;96.60
48860;DHT22;34679;51.436;-2.518;2022-07-10T00:06:44;17.70;96.90
48860;DHT22;34679;51.436;-2.518;2022-07-10T00:09:13;17.60;97.30
48860;DHT22;34679;51.436;-2.518;2022-07-10T00:11:40;17.50;97.60
48860;DHT22;34679;51.436;-2.518;2022-07-10T00:14:05;17.50;97.80
48860;DHT22;34679;51.436;-2.518;2022-07-10T00:16:31;17.40;98.00
48860;DHT22;34679;51.436;-2.518;2022-07-10T00:18:57;17.30;98.20
48860;DHT22;34679;51.436;-2.518;2022-07-10T00:21:22;17.30;98.40
48860;DHT22;34679;51.436;-2.518;2022-07-10T00:23:48;17.20;98.50
48860;DHT22;34679;51.436;-2.518;2022-07-10T00:26:14;17.20;98.70
48860;DHT22;34679;51.436;-2.518;2022-07-10T00:28:40;17.10;98.80
48860;DHT22;34679;51.436;-2.518;2022-07-10T00:31:05;17.00;99.10
48860;DHT22;34679;51.436;-2.518;2022-07-10T00:33:31;17.00;99.30
48860;DHT22;34679;51.436;-2.518;2022-07-10T00:35:58;16.90;99.60
48860;DHT22;34679;51.436;-2.518;2022-07-10T00:38:24;16.90;99.70
48860;DHT22;34679;51.436;-2.518;2022-07-10T00:40:50;16.70;99.90
48860;DHT22;34679;51.436;-2.518;2022-07-10T00:43:15;16.60;99.90
48860;DHT22;34679;51.436;-2.518;2022-07-10T00:45:41;16.60;99.90
48860;DHT22;34679;51.436;-2.518;2022-07-10T00:48:07;16.50;99.90
48860;DHT22;34679;51.436;-2.518;2022-07-10T00:50:35;16.40;99.90
48860;DHT22;34679;51.436;-2.518;2022-07-10T00:53:01;16.30;99.90
48860;DHT22;34679;51.436;-2.518;2022-07-10T00:55:29;16.20;99.90
48860;DHT22;34679;51.436;-2.518;2022-07-10T00:57:55;16.20;99.90
48860;DHT22;34679;51.436;-2.518;2022-07-10T01:00:21;16.10;99.90
48860;DHT22;34679;51.436;-2.518;2022-07-10T01:02:47;16.00;99.90
48860;DHT22;34679;51.436;-2.518;2022-07-10T01:05:13;16.00;99.90
48860;DHT22;34679;51.436;-2.518;2022-07-10T01:07:39;16.00;99.90
48860;DHT22;34679;51.436;-2.518;2022-07-10T01:10:05;15.90;99.90
48860;DHT22;34679;51.436;-2.518;2022-07-10T01:12:31;15.90;99.90
48860;DHT22;34679;51.436;-2.518;2022-07-10T01:14:58;15.80;99.90
48860;DHT22;34679;51.436;-2.518;2022-07-10T01:17:25;15.70;99.90
48860;DHT22;34679;51.436;-2.518;2022-07-10T01:19:51;15.70;99.90
48860;DHT22;34679;51.436;-2.518;2022-07-10T01:22:17;15.70;99.90
48860;DHT22;34679;51.436;-2.518;2022-07-10T01:24:43;15.70;99.90
48860;DHT22;34679;51.436;-2.518;2022-07-10T01:27:09;15.70;99.90
48860;DHT22;34679;51.436;-2.518;2022-07-10T01:29:35;15.80;99.90
48860;DHT22;34679;51.436;-2.518;2022-07-10T01:32:01;15.80;99.90
48860;DHT22;34679;51.436;-2.518;2022-07-10T01:34:27;15.80;99.90
48860;DHT22;34679;51.436;-2.518;2022-07-10T01:36:53;15.70;99.90
48860;DHT22;34679;51.436;-2.518;2022-07-10T01:39:19;15.80;99.90
48860;DHT22;34679;51.436;-2.518;2022-07-10T01:41:45;15.70;99.90
48860;DHT22;34679;51.436;-2.518;2022-07-10T01:44:11;15.70;99.90
48860;DHT22;34679;51.436;-2.518;2022-07-10T01:46:46;15.60;99.90
48860;DHT22;34679;51.436;-2.518;2022-07-10T01:49:14;15.60;99.90
48860;DHT22;34679;51.436;-2.518;2022-07-10T01:51:39;15.50;99.90
48860;DHT22;34679;51.436;-2.518;2022-07-10T01:54:06;15.50;99.90
48860;DHT22;34679;51.436;-2.518;2022-07-10T01:56:31;15.50;99.90
48860;DHT22;34679;51.436;-2.518;2022-07-10T01:58:58;15.40;99.90
48860;DHT22;34679;51.436;-2.518;2022-07-10T02:01:25;15.40;99.90
48860;DHT22;34679;51.436;-2.518;2022-07-10T02:03:51;15.30;99.90
48860;DHT22;34679;51.436;-2.518;2022-07-10T02:06:35;15.30;99.90
48860;DHT22;34679;51.436;-2.518;2022-07-10T02:09:01;15.20;99.90
48860;DHT22;34679;51.436;-2.518;2022-07-10T02:11:26;15.10;99.90
48860;DHT22;34679;51.436;-2.518;2022-07-10T02:13:52;15.00;99.90
48860;DHT22;34679;51.436;-2.518;2022-07-10T02:16:17;14.90;99.90
48860;DHT22;34679;51.436;-2.518;2022-07-10T02:18:43;14.80;99.90
48860;DHT22;34679;51.436;-2.518;2022-07-10T02:21:09;14.80;99.90
48860;DHT22;34679;51.436;-2.518;2022-07-10T02:23:35;14.70;99.90
48860;DHT22;34679;51.436;-2.518;2022-07-10T02:26:01;14.80;99.90
48860;DHT22;34679;51.436;-2.518;2022-07-10T02:28:27;14.80;99.90
48860;DHT22;34679;51.436;-2.518;2022-07-10T02:30:53;14.80;99.90
48860;DHT22;34679;51.436;-2.518;2022-07-10T02:33:19;14.70;99.90
48860;DHT22;34679;51.436;-2.518;2022-07-10T02:35:44;14.70;99.90
48860;DHT22;34679;51.436;-2.518;2022-07-10T02:38:10;14.60;99.90
48860;DHT22;34679;51.436;-2.518;2022-07-10T02:40:36;14.60;99.90
48860;DHT22;34679;51.436;-2.518;2022-07-10T02:43:01;14.50;99.90
48860;DHT22;34679;51.436;-2.518;2022-07-10T02:45:27;14.50;99.90
48860;DHT22;34679;51.436;-2.518;2022-07-10T02:47:53;14.40;99.90
48860;DHT22;34679;51.436;-2.518;2022-07-10T02:50:18;14.40;99.90
48860;DHT22;34679;51.436;-2.518;2022-07-10T02:52:44;14.30;99.90
48860;DHT22;34679;51.436;-2.518;2022-07-10T02:55:10;14.40;99.90
48860;DHT22;34679;51.436;-2.518;2022-07-10T02:57:35;14.40;99.90
48860;DHT22;34679;51.436;-2.518;2022-07-10T03:00:01;14.30;99.90
48860;DHT22;34679;51.436;-2.518;2022-07-10T03:02:27;14.30;99.90
48860;DHT22;34679;51.436;-2.518;2022-07-10T03:04:53;14.20;99.90
48860;DHT22;34679;51.436;-2.518;2022-07-10T03:07:18;14.10;99.90
48860;DHT22;34679;51.436;-2.518;2022-07-10T03:09:44;14.00;99.90
48860;DHT22;34679;51.436;-2.518;2022-07-10T03:12:10;13.90;99.90
48860;DHT22;34679;51.436;-2.518;2022-07-10T03:14:35;13.90;99.90
48860;DHT22;34679;51.436;-2.518;2022-07-10T03:17:01;13.80;99.90
48860;DHT22;34679;51.436;-2.518;2022-07-10T03:19:27;13.70;99.90
48860;DHT22;34679;51.436;-2.518;2022-07-10T03:21:52;13.70;99.90
48860;DHT22;34679;51.436;-2.518;2022-07-10T03:24:18;13.70;99.90
48860;DHT22;34679;51.436;-2.518;2022-07-10T03:26:44;13.60;99.90
48860;DHT22;34679;51.436;-2.518;2022-07-10T03:29:10;13.60;99.90
48860;DHT22;34679;51.436;-2.518;2022-07-10T03:31:36;13.60;99.90
48860;DHT22;34679;51.436;-2.518;2022-07-10T03:34:01;13.50;99.90
48860;DHT22;34679;51.436;-2.518;2022-07-10T03:36:27;13.50;99.90
48860;DHT22;34679;51.436;-2.518;2022-07-10T03:38:53;13.50;99.90
48860;DHT22;34679;51.436;-2.518;2022-07-10T03:41:19;13.40;99.90
48860;DHT22;34679;51.436;-2.518;2022-07-10T03:43:45;13.40;99.90
48860;DHT22;34679;51.436;-2.518;2022-07-10T03:46:10;13.40;99.90
48860;DHT22;34679;51.436;-2.518;2022-07-10T03:48:36;13.40;99.90
48860;DHT22;34679;51.436;-2.518;2022-07-10T03:51:02;13.40;99.90
48860;DHT22;34679;51.436;-2.518;2022-07-10T03:53:28;13.40;99.90
48860;DHT22;34679;51.436;-2.518;2022-07-10T03:55:54;13.40;99.90
48860;DHT22;34679;51.436;-2.518;2022-07-10T03:58:20;13.40;99.90
48860;DHT22;34679;51.436;-2.518;2022-07-10T04:00:46;13.40;99.90
48860;DHT22;34679;51.436;-2.518;2022-07-10T04:03:11;13.40;99.90
48860;DHT22;34679;51.436;-2.518;2022-07-10T04:05:39;13.40;99.90
48860;DHT22;34679;51.436;-2.518;2022-07-10T04:08:05;13.30;99.90
48860;DHT22;34679;51.436;-2.518;2022-07-10T04:10:32;13.40;99.90
48860;DHT22;34679;51.436;-2.518;2022-07-10T04:12:58;13.30;99.90
48860;DHT22;34679;51.436;-2.518;2022-07-10T04:15:24;13.40;99.90
48860;DHT22;34679;51.436;-2.518;2022-07-10T04:17:50;13.30;99.90
48860;DHT22;34679;51.436;-2.518;2022-07-10T04:20:17;13.20;99.90
48860;DHT22;34679;51.436;-2.518;2022-07-10T04:22:43;13.20;99.90
48860;DHT22;34679;51.436;-2.518;2022-07-10T04:25:10;13.20;99.90
48860;DHT22;34679;51.436;-2.518;2022-07-10T04:27:36;13.20;99.90
48860;DHT22;34679;51.436;-2.518;2022-07-10T04:30:02;13.20;99.90
48860;DHT22;34679;51.436;-2.518;2022-07-10T04:32:28;13.30;99.90
48860;DHT22;34679;51.436;-2.518;2022-07-10T04:34:55;13.30;99.90
48860;DHT22;34679;51.436;-2.518;2022-07-10T04:37:21;13.30;99.90
48860;DHT22;34679;51.436;-2.518;2022-07-10T04:39:46;13.60;99.90
48860;DHT22;34679;51.436;-2.518;2022-07-10T04:42:12;14.20;99.90
48860;DHT22;34679;51.436;-2.518;2022-07-10T04:44:38;15.00;99.90
48860;DHT22;34679;51.436;-2.518;2022-07-10T04:47:05;15.70;99.90
48860;DHT22;34679;51.436;-2.518;2022-07-10T04:49:31;16.50;99.90
48860;DHT22;34679;51.436;-2.518;2022-07-10T04:51:57;17.20;99.90
48860;DHT22;34679;51.436;-2.518;2022-07-10T04:54:23;18.20;99.90
48860;DHT22;34679;51.436;-2.518;2022-07-10T04:56:49;18.90;99.90
48860;DHT22;34679;51.436;-2.518;2022-07-10T04:59:14;19.80;99.90
48860;DHT22;34679;51.436;-2.518;2022-07-10T05:01:40;20.60;99.90
48860;DHT22;34679;51.436;-2.518;2022-07-10T05:04:06;21.50;99.90
48860;DHT22;34679;51.436;-2.518;2022-07-10T05:06:32;21.80;99.90
48860;DHT22;34679;51.436;-2.518;2022-07-10T05:08:58;22.20;99.90
48860;DHT22;34679;51.436;-2.518;2022-07-10T05:11:25;22.60;99.80
48860;DHT22;34679;51.436;-2.518;2022-07-10T05:13:51;23.20;99.00
48860;DHT22;34679;51.436;-2.518;2022-07-10T05:16:17;23.50;98.40
48860;DHT22;34679;51.436;-2.518;2022-07-10T05:18:43;23.50;98.30
48860;DHT22;34679;51.436;-2.518;2022-07-10T05:21:09;23.90;97.70
48860;DHT22;34679;51.436;-2.518;2022-07-10T05:23:35;24.10;97.40
48860;DHT22;34679;51.436;-2.518;2022-07-10T05:26:01;24.30;97.30
48860;DHT22;34679;51.436;-2.518;2022-07-10T05:28:27;24.90;96.70
48860;DHT22;34679;51.436;-2.518;2022-07-10T05:30:53;25.10;96.50
48860;DHT22;34679;51.436;-2.518;2022-07-10T05:33:19;25.70;95.90
48860;DHT22;34679;51.436;-2.518;2022-07-10T05:35:45;26.00;95.70
48860;DHT22;34679;51.436;-2.518;2022-07-10T05:38:10;26.10;95.60
48860;DHT22;34679;51.436;-2.518;2022-07-10T05:40:36;26.30;95.30
48860;DHT22;34679;51.436;-2.518;2022-07-10T05:43:02;26.60;95.00
48860;DHT22;34679;51.436;-2.518;2022-07-10T05:45:28;26.80;94.90
48860;DHT22;34679;51.436;-2.518;2022-07-10T05:47:55;27.10;94.60
48860;DHT22;34679;51.436;-2.518;2022-07-10T05:50:20;27.30;94.20
48860;DHT22;34679;51.436;-2.518;2022-07-10T05:52:46;27.30;94.10
48860;DHT22;34679;51.436;-2.518;2022-07-10T05:55:12;27.60;94.00
48860;DHT22;34679;51.436;-2.518;2022-07-10T05:57:38;28.00;93.80
48860;DHT22;34679;51.436;-2.518;2022-07-10T06:00:07;27.80;93.80
48860;DHT22;34679;51.436;-2.518;2022-07-10T06:02:34;28.00;93.90
48860;DHT22;34679;51.436;-2.518;2022-07-10T06:04:59;28.90;93.60
48860;DHT22;34679;51.436;-2.518;2022-07-10T06:07:26;28.40;93.60
48860;DHT22;34679;51.436;-2.518;2022-07-10T06:09:52;29.00;93.20
48860;DHT22;34679;51.436;-2.518;2022-07-10T06:12:18;29.30;93.10
48860;DHT22;34679;51.436;-2.518;2022-07-10T06:14:44;29.20;93.10
48860;DHT22;34679;51.436;-2.518;2022-07-10T06:17:09;29.50;92.90
48860;DHT22;34679;51.436;-2.518;2022-07-10T06:19:35;29.80;92.40
48860;DHT22;34679;51.436;-2.518;2022-07-10T06:22:01;29.00;92.70
48860;DHT22;34679;51.436;-2.518;2022-07-10T06:24:45;29.20;92.60
48860;DHT22;34679;51.436;-2.518;2022-07-10T06:27:11;29.20;92.60
48860;DHT22;34679;51.436;-2.518;2022-07-10T06:29:36;30.00;92.20
48860;DHT22;34679;51.436;-2.518;2022-07-10T06:32:03;30.50;91.70
48860;DHT22;34679;51.436;-2.518;2022-07-10T06:34:29;30.40;91.90
48860;DHT22;34679;51.436;-2.518;2022-07-10T06:36:54;30.50;91.70
48860;DHT22;34679;51.436;-2.518;2022-07-10T06:39:20;30.00;92.00
48860;DHT22;34679;51.436;-2.518;2022-07-10T06:41:46;30.10;91.80
48860;DHT22;34679;51.436;-2.518;2022-07-10T06:44:11;29.80;92.00
48860;DHT22;34679;51.436;-2.518;2022-07-10T06:46:37;30.30;91.90
48860;DHT22;34679;51.436;-2.518;2022-07-10T06:49:03;30.50;91.70
48860;DHT22;34679;51.436;-2.518;2022-07-10T06:51:29;30.50;91.60
48860;DHT22;34679;51.436;-2.518;2022-07-10T06:53:55;30.90;91.40
48860;DHT22;34679;51.436;-2.518;2022-07-10T06:56:21;31.20;91.20
48860;DHT22;34679;51.436;-2.518;2022-07-10T06:58:47;31.60;90.90
48860;DHT22;34679;51.436;-2.518;2022-07-10T07:01:13;31.80;91.00
48860;DHT22;34679;51.436;-2.518;2022-07-10T07:03:38;29.80;91.50
48860;DHT22;34679;51.436;-2.518;2022-07-10T07:06:04;30.40;91.50
48860;DHT22;34679;51.436;-2.518;2022-07-10T07:08:30;30.60;91.30
48860;DHT22;34679;51.436;-2.518;2022-07-10T07:10:56;30.50;91.60
48860;DHT22;34679;51.436;-2.518;2022-07-10T07:13:22;30.70;91.40
48860;DHT22;34679;51.436;-2.518;2022-07-10T07:15:48;30.90;91.10
48860;DHT22;34679;51.436;-2.518;2022-07-10T07:18:23;30.70;91.30
48860;DHT22;34679;51.436;-2.518;2022-07-10T07:20:57;31.30;91.20
48860;DHT22;34679;51.436;-2.518;2022-07-10T07:23:42;31.80;90.80
48860;DHT22;34679;51.436;-2.518;2022-07-10T07:26:07;31.70;90.80
48860;DHT22;34679;51.436;-2.518;2022-07-10T07:28:33;31.90;90.80
48860;DHT22;34679;51.436;-2.518;2022-07-10T07:30:59;31.20;90.60
48860;DHT22;34679;51.436;-2.518;2022-07-10T07:33:25;31.20;91.00
48860;DHT22;34679;51.436;-2.518;2022-07-10T07:35:50;30.70;91.00
48860;DHT22;34679;51.436;-2.518;2022-07-10T07:38:16;30.70;91.30
48860;DHT22;34679;51.436;-2.518;2022-07-10T07:40:43;31.20;91.10
48860;DHT22;34679;51.436;-2.518;2022-07-10T07:43:09;31.90;90.40
48860;DHT22;34679;51.436;-2.518;2022-07-10T07:45:35;32.60;90.20
48860;DHT22;34679;51.436;-2.518;2022-07-10T07:48:01;32.50;90.10
48860;DHT22;34679;51.436;-2.518;2022-07-10T07:50:29;32.30;90.30
48860;DHT22;34679;51.436;-2.518;2022-07-10T07:52:56;32.60;90.00
48860;DHT22;34679;51.436;-2.518;2022-07-10T07:55:23;32.40;90.20
48860;DHT22;34679;51.436;-2.518;2022-07-10T07:57:51;32.60;89.50
48860;DHT22;34679;51.436;-2.518;2022-07-10T08:00:19;32.80;89.80
48860;DHT22;34679;51.436;-2.518;2022-07-10T08:02:48;32.50;90.10
48860;DHT22;34679;51.436;-2.518;2022-07-10T08:05:14;33.10;90.10
48860;DHT22;34679;51.436;-2.518;2022-07-10T08:07:41;33.20;89.30
48860;DHT22;34679;51.436;-2.518;2022-07-10T08:10:16;33.10;89.80
48860;DHT22;34679;51.436;-2.518;2022-07-10T08:12:43;33.00;89.70
48860;DHT22;34679;51.436;-2.518;2022-07-10T08:15:12;31.90;90.00
48860;DHT22;34679;51.436;-2.518;2022-07-10T08:17:39;31.90;89.90
48860;DHT22;34679;51.436;-2.518;2022-07-10T08:20:06;32.40;89.70
48860;DHT22;34679;51.436;-2.518;2022-07-10T08:22:32;33.40;88.60
48860;DHT22;34679;51.436;-2.518;2022-07-10T08:24:58;32.80;88.50
48860;DHT22;34679;51.436;-2.518;2022-07-10T08:27:24;32.70;89.00
48860;DHT22;34679;51.436;-2.518;2022-07-10T08:29:50;33.60;88.10
48860;DHT22;34679;51.436;-2.518;2022-07-10T08:32:16;33.00;88.20
48860;DHT22;34679;51.436;-2.518;2022-07-10T08:34:42;32.80;88.70
48860;DHT22;34679;51.436;-2.518;2022-07-10T08:37:07;33.50;88.00
48860;DHT22;34679;51.436;-2.518;2022-07-10T08:39:33;33.40;87.50
48860;DHT22;34679;51.436;-2.518;2022-07-10T08:42:00;33.30;87.60
48860;DHT22;34679;51.436;-2.518;2022-07-10T08:44:27;33.10;88.50
48860;DHT22;34679;51.436;-2.518;2022-07-10T08:46:53;34.30;87.10
48860;DHT22;34679;51.436;-2.518;2022-07-10T08:49:20;33.90;87.60
48860;DHT22;34679;51.436;-2.518;2022-07-10T08:52:08;34.00;86.80
48860;DHT22;34679;51.436;-2.518;2022-07-10T08:54:38;34.30;86.80
48860;DHT22;34679;51.436;-2.518;2022-07-10T08:57:04;33.60;87.10
48860;DHT22;34679;51.436;-2.518;2022-07-10T08:59:31;34.10;87.10
48860;DHT22;34679;51.436;-2.518;2022-07-10T09:01:57;33.70;88.20
48860;DHT22;34679;51.436;-2.518;2022-07-10T09:04:26;33.60;87.20
48860;DHT22;34679;51.436;-2.518;2022-07-10T09:06:53;33.60;88.00
48860;DHT22;34679;51.436;-2.518;2022-07-10T09:09:20;33.80;88.30
48860;DHT22;34679;51.436;-2.518;2022-07-10T09:11:46;34.20;87.30
48860;DHT22;34679;51.436;-2.518;2022-07-10T09:14:15;34.00;86.90
48860;DHT22;34679;51.436;-2.518;2022-07-10T09:16:45;34.20;88.00
48860;DHT22;34679;51.436;-2.518;2022-07-10T09:19:18;33.40;89.00
48860;DHT22;34679;51.436;-2.518;2022-07-10T09:21:52;34.00;88.00
48860;DHT22;34679;51.436;-2.518;2022-07-10T09:24:19;34.30;86.80
48860;DHT22;34679;51.436;-2.518;2022-07-10T09:27:05;33.90;86.80
48860;DHT22;34679;51.436;-2.518;2022-07-10T09:29:32;33.50;87.10
48860;DHT22;34679;51.436;-2.518;2022-07-10T09:32:02;33.80;86.90
48860;DHT22;34679;51.436;-2.518;2022-07-10T09:34:41;34.20;86.70
48860;DHT22;34679;51.436;-2.518;2022-07-10T09:42:33;33.70;87.20
48860;DHT22;34679;51.436;-2.518;2022-07-10T09:50:27;33.00;86.70
48860;DHT22;34679;51.436;-2.518;2022-07-10T09:52:58;33.40;88.10
48860;DHT22;34679;51.436;-2.518;2022-07-10T09:55:26;34.10;86.30
48860;DHT22;34679;51.436;-2.518;2022-07-10T09:57:54;33.30;87.20
48860;DHT22;34679;51.436;-2.518;2022-07-10T10:00:23;33.00;88.20
48860;DHT22;34679;51.436;-2.518;2022-07-10T10:02:55;33.40;88.20
48860;DHT22;34679;51.436;-2.518;2022-07-10T10:05:22;33.50;87.80
48860;DHT22;34679;51.436;-2.518;2022-07-10T10:07:51;34.10;85.30
48860;DHT22;34679;51.436;-2.518;2022-07-10T10:10:18;33.40;85.70
48860;DHT22;34679;51.436;-2.518;2022-07-10T10:12:48;33.00;85.50
48860;DHT22;34679;51.436;-2.518;2022-07-10T10:15:16;32.90;85.70
48860;DHT22;34679;51.436;-2.518;2022-07-10T10:17:41;32.60;87.40
48860;DHT22;34679;51.436;-2.518;2022-07-10T10:20:08;32.20;88.30
48860;DHT22;34679;51.436;-2.518;2022-07-10T10:22:55;32.60;88.30
48860;DHT22;34679;51.436;-2.518;2022-07-10T10:25:24;31.80;89.00
48860;DHT22;34679;51.436;-2.518;2022-07-10T10:27:50;31.20;90.20
48860;DHT22;34679;51.436;-2.518;2022-07-10T10:30:16;31.40;89.70
48860;DHT22;34679;51.436;-2.518;2022-07-10T10:32:42;31.70;89.40
48860;DHT22;34679;51.436;-2.518;2022-07-10T10:35:08;31.60;89.10
48860;DHT22;34679;51.436;-2.518;2022-07-10T10:37:38;30.70;89.10
48860;DHT22;34679;51.436;-2.518;2022-07-10T10:40:07;30.90;88.50
48860;DHT22;34679;51.436;-2.518;2022-07-10T10:42:43;30.70;86.50
48860;DHT22;34679;51.436;-2.518;2022-07-10T10:45:33;30.30;87.50
48860;DHT22;34679;51.436;-2.518;2022-07-10T10:48:04;30.10;87.10
48860;DHT22;34679;51.436;-2.518;2022-07-10T10:56:20;29.60;89.60
48860;DHT22;34679;51.436;-2.518;2022-07-10T10:58:46;29.10;88.20
48860;DHT22;34679;51.436;-2.518;2022-07-10T11:04:13;28.70;88.90
48860;DHT22;34679;51.436;-2.518;2022-07-10T11:06:47;28.70;89.00
48860;DHT22;34679;51.436;-2.518;2022-07-10T11:09:30;28.90;88.60
48860;DHT22;34679;51.436;-2.518;2022-07-10T11:12:03;29.00;89.00
48860;DHT22;34679;51.436;-2.518;2022-07-10T11:14:31;29.20;87.60
48860;DHT22;34679;51.436;-2.518;2022-07-10T11:16:58;29.10;88.90
48860;DHT22;34679;51.436;-2.518;2022-07-10T11:19:26;29.10;87.70
48860;DHT22;34679;51.436;-2.518;2022-07-10T11:28:17;28.70;84.60
48860;DHT22;34679;51.436;-2.518;2022-07-10T11:30:51;28.90;86.10
48860;DHT22;34679;51.436;-2.518;2022-07-10T11:33:19;29.10;84.90
48860;DHT22;34679;51.436;-2.518;2022-07-10T11:35:55;28.80;83.10
48860;DHT22;34679;51.436;-2.518;2022-07-10T11:38:25;28.60;84.70
48860;DHT22;34679;51.436;-2.518;2022-07-10T11:40:52;28.50;85.60
48860;DHT22;34679;51.436;-2.518;2022-07-10T11:43:21;28.10;85.50
48860;DHT22;34679;51.436;-2.518;2022-07-10T11:45:50;28.40;85.60
48860;DHT22;34679;51.436;-2.518;2022-07-10T11:48:20;28.40;82.60
48860;DHT22;34679;51.436;-2.518;2022-07-10T11:50:47;28.20;84.00
48860;DHT22;34679;51.436;-2.518;2022-07-10T11:53:13;28.10;85.00
48860;DHT22;34679;51.436;-2.518;2022-07-10T11:55:39;28.20;86.20
48860;DHT22;34679;51.436;-2.518;2022-07-10T11:58:16;28.40;86.30
48860;DHT22;34679;51.436;-2.518;2022-07-10T12:00:42;28.90;85.00
48860;DHT22;34679;51.436;-2.518;2022-07-10T12:03:21;28.70;81.80
48860;DHT22;34679;51.436;-2.518;2022-07-10T12:05:49;29.10;83.50
48860;DHT22;34679;51.436;-2.518;2022-07-10T12:08:17;29.20;85.20
48860;DHT22;34679;51.436;-2.518;2022-07-10T12:10:44;29.40;86.30
48860;DHT22;34679;51.436;-2.518;2022-07-10T12:13:12;28.80;87.10
48860;DHT22;34679;51.436;-2.518;2022-07-10T12:15:40;28.70;87.10
48860;DHT22;34679;51.436;-2.518;2022-07-10T12:18:07;28.40;87.20
48860;DHT22;34679;51.436;-2.518;2022-07-10T12:20:34;28.60;88.60
48860;DHT22;34679;51.436;-2.518;2022-07-10T12:23:00;28.40;88.30
48860;DHT22;34679;51.436;-2.518;2022-07-10T12:25:26;28.40;87.70
48860;DHT22;34679;51.436;-2.518;2022-07-10T12:27:56;28.60;86.70
48860;DHT22;34679;51.436;-2.518;2022-07-10T12:30:45;28.60;87.40
48860;DHT22;34679;51.436;-2.518;2022-07-10T12:33:12;28.60;86.40
48860;DHT22;34679;51.436;-2.518;2022-07-10T12:35:54;28.50;87.70
48860;DHT22;34679;51.436;-2.518;2022-07-10T12:38:29;28.30;89.30
48860;DHT22;34679;51.436;-2.518;2022-07-10T12:41:13;28.50;87.60
48860;DHT22;34679;51.436;-2.518;2022-07-10T12:43:40;28.70;87.00
48860;DHT22;34679;51.436;-2.518;2022-07-10T12:46:15;28.70;89.00
48860;DHT22;34679;51.436;-2.518;2022-07-10T12:48:42;28.30;88.20
48860;DHT22;34679;51.436;-2.518;2022-07-10T12:51:26;28.00;88.70
48860;DHT22;34679;51.436;-2.518;2022-07-10T12:53:54;28.40;87.70
48860;DHT22;34679;51.436;-2.518;2022-07-10T12:56:48;28.60;87.80
48860;DHT22;34679;51.436;-2.518;2022-07-10T12:59:21;28.80;88.60
48860;DHT22;34679;51.436;-2.518;2022-07-10T13:01:47;29.10;87.80
48860;DHT22;34679;51.436;-2.518;2022-07-10T13:04:13;29.30;88.60
48860;DHT22;34679;51.436;-2.518;2022-07-10T13:06:39;29.50;87.50
48860;DHT22;34679;51.436;-2.518;2022-07-10T13:09:24;29.60;85.50
48860;DHT22;34679;51.436;-2.518;2022-07-10T13:11:51;29.80;85.30
48860;DHT22;34679;51.436;-2.518;2022-07-10T13:14:18;29.70;85.50
48860;DHT22;34679;51.436;-2.518;2022-07-10T13:16:43;29.30;85.20
48860;DHT22;34679;51.436;-2.518;2022-07-10T13:19:09;28.90;85.40
48860;DHT22;34679;51.436;-2.518;2022-07-10T13:21:35;28.60;85.50
48860;DHT22;34679;51.436;-2.518;2022-07-10T13:24:02;28.70;85.50
48860;DHT22;34679;51.436;-2.518;2022-07-10T13:26:29;28.70;85.10
48860;DHT22;34679;51.436;-2.518;2022-07-10T13:28:56;28.80;84.60
48860;DHT22;34679;51.436;-2.518;2022-07-10T13:31:21;28.70;85.20
48860;DHT22;34679;51.436;-2.518;2022-07-10T13:33:47;28.70;84.80
48860;DHT22;34679;51.436;-2.518;2022-07-10T13:36:13;28.70;85.90
48860;DHT22;34679;51.436;-2.518;2022-07-10T13:38:39;28.60;85.10
48860;DHT22;34679;51.436;-2.518;2022-07-10T13:41:05;28.50;85.40
48860;DHT22;34679;51.436;-2.518;2022-07-10T13:43:31;28.50;85.60
48860;DHT22;34679;51.436;-2.518;2022-07-10T13:46:00;28.50;84.80
48860;DHT22;34679;51.436;-2.518;2022-07-10T13:48:26;28.60;84.60
48860;DHT22;34679;51.436;-2.518;2022-07-10T13:50:52;28.70;85.80
48860;DHT22;34679;51.436;-2.518;2022-07-10T13:53:18;28.70;85.00
48860;DHT22;34679;51.436;-2.518;2022-07-10T13:55:45;28.40;87.10
48860;DHT22;34679;51.436;-2.518;2022-07-10T13:58:11;28.30;86.10
48860;DHT22;34679;51.436;-2.518;2022-07-10T14:00:37;28.20;86.10
48860;DHT22;34679;51.436;-2.518;2022-07-10T14:03:04;28.20;85.30
48860;DHT22;34679;51.436;-2.518;2022-07-10T14:05:30;28.40;84.60
48860;DHT22;34679;51.436;-2.518;2022-07-10T14:07:56;28.40;84.20
48860;DHT22;34679;51.436;-2.518;2022-07-10T14:10:21;28.50;88.40
48860;DHT22;34679;51.436;-2.518;2022-07-10T14:12:47;28.40;85.60
48860;DHT22;34679;51.436;-2.518;2022-07-10T14:15:13;28.10;86.80
48860;DHT22;34679;51.436;-2.518;2022-07-10T14:17:39;28.30;87.60
48860;DHT22;34679;51.436;-2.518;2022-07-10T14:20:05;28.50;86.20
48860;DHT22;34679;51.436;-2.518;2022-07-10T14:22:31;28.70;86.10
48860;DHT22;34679;51.436;-2.518;2022-07-10T14:24:57;28.50;85.80
48860;DHT22;34679;51.436;-2.518;2022-07-10T14:27:23;28.40;85.30
48860;DHT22;34679;51.436;-2.518;2022-07-10T14:29:50;28.50;85.40
48860;DHT22;34679;51.436;-2.518;2022-07-10T14:32:16;28.40;85.70
48860;DHT22;34679;51.436;-2.518;2022-07-10T14:34:41;28.30;86.30
48860;DHT22;34679;51.436;-2.518;2022-07-10T14:37:07;28.20;86.20
48860;DHT22;34679;51.436;-2.518;2022-07-10T14:39:33;28.00;86.10
48860;DHT22;34679;51.436;-2.518;2022-07-10T14:41:58;27.70;87.10
48860;DHT22;34679;51.436;-2.518;2022-07-10T14:44:24;27.90;87.70
48860;DHT22;34679;51.436;-2.518;2022-07-10T14:46:50;28.00;87.40
48860;DHT22;34679;51.436;-2.518;2022-07-10T14:49:15;28.10;86.60
48860;DHT22;34679;51.436;-2.518;2022-07-10T14:51:42;28.20;87.10
48860;DHT22;34679;51.436;-2.518;2022-07-10T14:54:07;28.30;88.20
48860;DHT22;34679;51.436;-2.518;2022-07-10T14:56:33;28.40;86.60
48860;DHT22;34679;51.436;-2.518;2022-07-10T14:58:59;28.10;86.40
48860;DHT22;34679;51.436;-2.518;2022-07-10T15:01:25;28.00;86.50
48860;DHT22;34679;51.436;-2.518;2022-07-10T15:03:50;27.90;87.20
48860;DHT22;34679;51.436;-2.518;2022-07-10T15:06:16;27.90;87.20
48860;DHT22;34679;51.436;-2.518;2022-07-10T15:08:42;27.80;85.20
48860;DHT22;34679;51.436;-2.518;2022-07-10T15:11:08;27.90;85.00
48860;DHT22;34679;51.436;-2.518;2022-07-10T15:13:34;28.00;85.30
48860;DHT22;34679;51.436;-2.518;2022-07-10T15:15:59;28.00;83.80
48860;DHT22;34679;51.436;-2.518;2022-07-10T15:18:26;28.00;82.30
48860;DHT22;34679;51.436;-2.518;2022-07-10T15:20:52;27.90;83.20
48860;DHT22;34679;51.436;-2.518;2022-07-10T15:23:17;27.90;81.60
48860;DHT22;34679;51.436;-2.518;2022-07-10T15:25:43;27.90;82.40
48860;DHT22;34679;51.436;-2.518;2022-07-10T15:28:10;27.90;82.80
48860;DHT22;34679;51.436;-2.518;2022-07-10T15:30:37;27.80;83.70
48860;DHT22;34679;51.436;-2.518;2022-07-10T15:33:04;27.90;83.60
48860;DHT22;34679;51.436;-2.518;2022-07-10T15:35:31;27.60;82.20
48860;DHT22;34679;51.436;-2.518;2022-07-10T15:37:57;27.70;82.80
48860;DHT22;34679;51.436;-2.518;2022-07-10T15:40:33;27.90;83.10
48860;DHT22;34679;51.436;-2.518;2022-07-10T15:43:00;28.10;82.70